sensor_id;sensor_type;location;lat;lon;timestamp;pressure;altitude;pressure_sealevel;temperature;humidity
70434;BME280;57876;47.792;12.960;2023-07-29T00:01:49;96563.56;;;18.52;62.45
70434;BME280;57876;47.792;12.960;2023-07-29T00:04:13;96569.97;;;18.56;62.59
70434;BME280;57876;47.792;12.960;2023-07-29T00:06:38;96561.31;;;18.54;62.52
70434;BME280;57876;47.792;12.960;2023-07-29T00:09:02;96560.16;;;18.55;62.47
70434;BME280;57876;47.792;12.960;2023-07-29T00:11:27;96552.63;;;18.52;62.27
70434;BME280;57876;47.792;12.960;2023-07-29T00:13:51;96560.16;;;18.55;62.49
70434;BME280;57876;47.792;12.960;2023-07-29T00:16:16;96564.47;;;18.56;62.63
70434;BME280;57876;47.792;12.960;2023-07-29T00:18:41;96549.19;;;18.55;62.63
70434;BME280;57876;47.792;12.960;2023-07-29T00:21:05;96551.94;;;18.55;62.56
70434;BME280;57876;47.792;12.960;2023-07-29T00:23:30;96557.41;;;18.55;62.42
70434;BME280;57876;47.792;12.960;2023-07-29T00:25:54;96553.53;;;18.56;62.61
70434;BME280;57876;47.792;12.960;2023-07-29T00:28:19;96555.81;;;18.54;62.51
70434;BME280;57876;47.792;12.960;2023-07-29T00:30:43;96551.94;;;18.55;62.62
70434;BME280;57876;47.792;12.960;2023-07-29T00:33:07;96557.78;;;18.54;62.66
70434;BME280;57876;47.792;12.960;2023-07-29T00:35:32;96551.47;;;18.53;62.57
70434;BME280;57876;47.792;12.960;2023-07-29T00:37:56;96550.34;;;18.54;62.55
70434;BME280;57876;47.792;12.960;2023-07-29T00:40:22;96555.03;;;18.54;62.44
70434;BME280;57876;47.792;12.960;2023-07-29T00:42:47;96553.88;;;18.55;62.35
70434;BME280;57876;47.792;12.960;2023-07-29T00:45:12;96546.47;;;18.55;62.47
70434;BME280;57876;47.792;12.960;2023-07-29T00:47:37;96547.59;;;18.54;62.52
70434;BME280;57876;47.792;12.960;2023-07-29T00:50:02;96548.41;;;18.55;62.64
70434;BME280;57876;47.792;12.960;2023-07-29T00:52:27;96537.44;;;18.55;62.78
70434;BME280;57876;47.792;12.960;2023-07-29T00:54:51;96539.38;;;18.54;62.53
70434;BME280;57876;47.792;12.960;2023-07-29T00:57:16;96531.19;;;18.54;62.97
70434;BME280;57876;47.792;12.960;2023-07-29T00:59:42;96522.97;;;18.54;62.71
70434;BME280;57876;47.792;12.960;2023-07-29T01:02:07;96536.66;;;18.54;62.71
70434;BME280;57876;47.792;12.960;2023-07-29T01:04:31;96544.88;;;18.54;62.75
70434;BME280;57876;47.792;12.960;2023-07-29T01:07:10;96538.59;;;18.54;62.48
70434;BME280;57876;47.792;12.960;2023-07-29T01:15:26;96534.72;;;18.55;62.43
70434;BME280;57876;47.792;12.960;2023-07-29T01:17:55;96540.19;;;18.55;62.53
70434;BME280;57876;47.792;12.960;2023-07-29T01:20:20;96530.72;;;18.52;62.59
70434;BME280;57876;47.792;12.960;2023-07-29T01:22:48;96533.13;;;18.54;62.46
70434;BME280;57876;47.792;12.960;2023-07-29T01:25:13;96532.31;;;18.53;62.39
70434;BME280;57876;47.792;12.960;2023-07-29T01:27:37;96530.38;;;18.54;62.70
70434;BME280;57876;47.792;12.960;2023-07-29T01:30:03;96525.69;;;18.54;62.71
70434;BME280;57876;47.792;12.960;2023-07-29T01:37:55;96517.47;;;18.54;62.45
70434;BME280;57876;47.792;12.960;2023-07-29T01:40:22;96516.69;;;18.54;62.81
70434;BME280;57876;47.792;12.960;2023-07-29T01:42:48;96515.06;;;18.53;62.67
70434;BME280;57876;47.792;12.960;2023-07-29T01:45:12;96515.06;;;18.53;62.36
70434;BME280;57876;47.792;12.960;2023-07-29T01:47:37;96514.28;;;18.52;62.42
70434;BME280;57876;47.792;12.960;2023-07-29T01:50:04;96515.88;;;18.53;62.64
70434;BME280;57876;47.792;12.960;2023-07-29T01:52:29;96525.25;;;18.52;62.57
70434;BME280;57876;47.792;12.960;2023-07-29T01:54:53;96515.88;;;18.53;62.63
70434;BME280;57876;47.792;12.960;2023-07-29T01:57:18;96517.47;;;18.54;62.46
70434;BME280;57876;47.792;12.960;2023-07-29T01:59:42;96521.34;;;18.53;62.23
70434;BME280;57876;47.792;12.960;2023-07-29T02:02:06;96517.03;;;18.52;62.66
70434;BME280;57876;47.792;12.960;2023-07-29T02:04:31;96515.44;;;18.51;62.68
70434;BME280;57876;47.792;12.960;2023-07-29T02:06:55;96513.50;;;18.52;62.22
70434;BME280;57876;47.792;12.960;2023-07-29T02:09:20;96515.88;;;18.53;62.78
70434;BME280;57876;47.792;12.960;2023-07-29T02:11:44;96509.97;;;18.51;62.74
70434;BME280;57876;47.792;12.960;2023-07-29T02:14:09;96509.59;;;18.53;62.61
70434;BME280;57876;47.792;12.960;2023-07-29T02:16:33;96506.06;;;18.52;62.39
70434;BME280;57876;47.792;12.960;2023-07-29T02:18:58;96496.25;;;18.51;62.72
70434;BME280;57876;47.792;12.960;2023-07-29T02:21:23;96495.56;;;18.54;62.70
70434;BME280;57876;47.792;12.960;2023-07-29T02:23:47;96501.38;;;18.53;62.65
70434;BME280;57876;47.792;12.960;2023-07-29T02:26:11;96491.56;;;18.52;62.60
70434;BME280;57876;47.792;12.960;2023-07-29T02:28:36;96483.69;;;18.50;62.67
70434;BME280;57876;47.792;12.960;2023-07-29T02:31:23;96500.25;;;18.54;62.52
70434;BME280;57876;47.792;12.960;2023-07-29T02:33:47;96496.69;;;18.53;62.70
70434;BME280;57876;47.792;12.960;2023-07-29T02:36:12;96495.09;;;18.52;62.58
70434;BME280;57876;47.792;12.960;2023-07-29T02:38:37;96499.44;;;18.53;62.58
70434;BME280;57876;47.792;12.960;2023-07-29T02:41:01;96490.44;;;18.53;62.66
70434;BME280;57876;47.792;12.960;2023-07-29T02:43:26;96477.53;;;18.53;62.50
70434;BME280;57876;47.792;12.960;2023-07-29T02:45:50;96479.84;;;18.51;62.89
70434;BME280;57876;47.792;12.960;2023-07-29T02:48:14;96490.44;;;18.53;62.62
70434;BME280;57876;47.792;12.960;2023-07-29T02:50:39;96493.16;;;18.53;62.70
70434;BME280;57876;47.792;12.960;2023-07-29T02:53:03;96488.47;;;18.53;62.50
70434;BME280;57876;47.792;12.960;2023-07-29T02:55:28;96493.16;;;18.53;62.62
70434;BME280;57876;47.792;12.960;2023-07-29T02:57:52;96489.16;;;18.50;62.50
70434;BME280;57876;47.792;12.960;2023-07-29T03:00:16;96486.78;;;18.48;62.52
70434;BME280;57876;47.792;12.960;2023-07-29T03:02:41;96499.44;;;18.53;62.59
70434;BME280;57876;47.792;12.960;2023-07-29T03:05:05;96499.00;;;18.51;62.48
70434;BME280;57876;47.792;12.960;2023-07-29T03:07:30;96503.31;;;18.52;62.54
70434;BME280;57876;47.792;12.960;2023-07-29T03:09:54;96502.88;;;18.50;62.30
70434;BME280;57876;47.792;12.960;2023-07-29T03:12:18;96501.38;;;18.53;62.54
70434;BME280;57876;47.792;12.960;2023-07-29T03:14:43;96499.34;;;18.49;62.67
70434;BME280;57876;47.792;12.960;2023-07-29T03:17:07;96503.22;;;18.48;62.49
70434;BME280;57876;47.792;12.960;2023-07-29T03:19:32;96498.53;;;18.49;62.82
70434;BME280;57876;47.792;12.960;2023-07-29T03:21:56;96496.25;;;18.51;62.46
70434;BME280;57876;47.792;12.960;2023-07-29T03:24:20;96497.06;;;18.52;62.67
70434;BME280;57876;47.792;12.960;2023-07-29T03:26:45;96496.25;;;18.51;62.64
70434;BME280;57876;47.792;12.960;2023-07-29T03:29:09;96500.13;;;18.50;62.58
70434;BME280;57876;47.792;12.960;2023-07-29T03:31:33;96501.75;;;18.51;62.63
70434;BME280;57876;47.792;12.960;2023-07-29T03:33:58;96499.78;;;18.52;62.48
70434;BME280;57876;47.792;12.960;2023-07-29T03:36:22;96500.59;;;18.52;62.70
70434;BME280;57876;47.792;12.960;2023-07-29T03:38:49;96503.66;;;18.51;62.58
70434;BME280;57876;47.792;12.960;2023-07-29T03:41:13;96510.75;;;18.52;62.65
70434;BME280;57876;47.792;12.960;2023-07-29T03:43:38;96509.97;;;18.51;62.34
70434;BME280;57876;47.792;12.960;2023-07-29T03:46:02;96517.03;;;18.52;62.74
70434;BME280;57876;47.792;12.960;2023-07-29T03:48:27;96511.88;;;18.51;62.73
70434;BME280;57876;47.792;12.960;2023-07-29T03:50:51;96517.34;;;18.51;62.60
70434;BME280;57876;47.792;12.960;2023-07-29T03:53:15;96516.22;;;18.52;62.50
70434;BME280;57876;47.792;12.960;2023-07-29T03:55:41;96516.56;;;18.50;62.60
70434;BME280;57876;47.792;12.960;2023-07-29T03:58:05;96520.91;;;18.51;62.74
70434;BME280;57876;47.792;12.960;2023-07-29T04:00:29;96519.75;;;18.52;62.76
70434;BME280;57876;47.792;12.960;2023-07-29T04:02:54;96520.44;;;18.49;62.62
70434;BME280;57876;47.792;12.960;2023-07-29T04:05:19;96518.16;;;18.51;62.52
70434;BME280;57876;47.792;12.960;2023-07-29T04:07:43;96519.66;;;18.48;62.45
70434;BME280;57876;47.792;12.960;2023-07-29T04:10:08;96514.19;;;18.48;62.49
70434;BME280;57876;47.792;12.960;2023-07-29T04:12:32;96525.94;;;18.49;62.66
70434;BME280;57876;47.792;12.960;2023-07-29T04:14:56;96527.19;;;18.52;62.37
70434;BME280;57876;47.792;12.960;2023-07-29T04:17:21;96530.72;;;18.52;62.91
70434;BME280;57876;47.792;12.960;2023-07-29T04:19:45;96529.13;;;18.51;62.69
70434;BME280;57876;47.792;12.960;2023-07-29T04:22:10;96529.91;;;18.52;62.71
70434;BME280;57876;47.792;12.960;2023-07-29T04:24:34;96529.91;;;18.52;62.67
70434;BME280;57876;47.792;12.960;2023-07-29T04:26:58;96529.13;;;18.51;62.93
70434;BME280;57876;47.792;12.960;2023-07-29T04:29:23;96535.41;;;18.52;62.74
70434;BME280;57876;47.792;12.960;2023-07-29T04:31:47;96530.72;;;18.52;62.84
70434;BME280;57876;47.792;12.960;2023-07-29T04:34:11;96531.88;;;18.51;62.61
70434;BME280;57876;47.792;12.960;2023-07-29T04:36:36;96529.13;;;18.51;62.67
70434;BME280;57876;47.792;12.960;2023-07-29T04:39:00;96532.19;;;18.49;62.58
70434;BME280;57876;47.792;12.960;2023-07-29T04:41:25;96526.81;;;18.53;62.52
70434;BME280;57876;47.792;12.960;2023-07-29T04:43:49;96531.50;;;18.53;62.48
70434;BME280;57876;47.792;12.960;2023-07-29T04:46:13;96525.25;;;18.52;62.44
70434;BME280;57876;47.792;12.960;2023-07-29T04:48:38;96525.25;;;18.52;62.58
70434;BME280;57876;47.792;12.960;2023-07-29T04:51:02;96527.97;;;18.52;62.62
70434;BME280;57876;47.792;12.960;2023-07-29T04:53:27;96528.31;;;18.51;62.52
70434;BME280;57876;47.792;12.960;2023-07-29T04:55:51;96536.97;;;18.53;62.49
70434;BME280;57876;47.792;12.960;2023-07-29T04:58:15;96543.25;;;18.53;62.63
70434;BME280;57876;47.792;12.960;2023-07-29T05:00:40;96537.78;;;18.53;62.59
70434;BME280;57876;47.792;12.960;2023-07-29T05:03:04;96529.91;;;18.52;62.80
70434;BME280;57876;47.792;12.960;2023-07-29T05:05:29;96524.44;;;18.52;62.53
70434;BME280;57876;47.792;12.960;2023-07-29T05:07:53;96516.22;;;18.52;62.30
70434;BME280;57876;47.792;12.960;2023-07-29T05:10:17;96522.81;;;18.51;62.86
70434;BME280;57876;47.792;12.960;2023-07-29T05:12:42;96519.75;;;18.52;62.48
70434;BME280;57876;47.792;12.960;2023-07-29T05:15:07;96508.81;;;18.52;62.73
70434;BME280;57876;47.792;12.960;2023-07-29T05:17:31;96508.81;;;18.52;62.62
70434;BME280;57876;47.792;12.960;2023-07-29T05:19:56;96502.16;;;18.53;62.63
70434;BME280;57876;47.792;12.960;2023-07-29T05:22:20;96491.13;;;18.49;62.51
70434;BME280;57876;47.792;12.960;2023-07-29T05:24:44;96481.41;;;18.52;62.47
70434;BME280;57876;47.792;12.960;2023-07-29T05:27:09;96493.97;;;18.53;62.38
70434;BME280;57876;47.792;12.960;2023-07-29T05:29:33;96477.53;;;18.53;62.54
70434;BME280;57876;47.792;12.960;2023-07-29T05:31:58;96472.75;;;18.50;62.60
70434;BME280;57876;47.792;12.960;2023-07-29T05:34:22;96475.94;;;18.52;62.50
70434;BME280;57876;47.792;12.960;2023-07-29T05:36:47;96477.53;;;18.53;62.56
70434;BME280;57876;47.792;12.960;2023-07-29T05:39:11;96476.41;;;18.54;62.62
70434;BME280;57876;47.792;12.960;2023-07-29T05:41:36;96464.19;;;18.52;62.51
70434;BME280;57876;47.792;12.960;2023-07-29T05:44:01;96465.44;;;18.54;62.48
70434;BME280;57876;47.792;12.960;2023-07-29T05:46:25;96458.72;;;18.52;62.63
70434;BME280;57876;47.792;12.960;2023-07-29T05:48:50;96450.13;;;18.53;62.52
70434;BME280;57876;47.792;12.960;2023-07-29T05:51:14;96446.28;;;18.54;62.45
70434;BME280;57876;47.792;12.960;2023-07-29T05:53:39;96451.38;;;18.56;62.51
70434;BME280;57876;47.792;12.960;2023-07-29T05:56:03;96440.78;;;18.54;62.61
70434;BME280;57876;47.792;12.960;2023-07-29T05:58:28;96457.66;;;18.56;62.26
70434;BME280;57876;47.792;12.960;2023-07-29T06:00:55;96458.81;;;18.55;62.52
70434;BME280;57876;47.792;12.960;2023-07-29T06:03:19;96457.22;;;18.54;62.62
70434;BME280;57876;47.792;12.960;2023-07-29T06:05:43;96457.22;;;18.54;62.31
70434;BME280;57876;47.792;12.960;2023-07-29T06:08:08;96458.81;;;18.55;62.46
70434;BME280;57876;47.792;12.960;2023-07-29T06:10:38;96459.97;;;18.54;62.46
70434;BME280;57876;47.792;12.960;2023-07-29T06:13:03;96467.38;;;18.54;62.69
70434;BME280;57876;47.792;12.960;2023-07-29T06:15:27;96459.97;;;18.54;62.38
70434;BME280;57876;47.792;12.960;2023-07-29T06:17:53;96459.59;;;18.56;62.47
70434;BME280;57876;47.792;12.960;2023-07-29T06:20:17;96453.34;;;18.55;62.63
70434;BME280;57876;47.792;12.960;2023-07-29T06:22:42;96465.88;;;18.56;62.36
70434;BME280;57876;47.792;12.960;2023-07-29T06:25:07;96466.25;;;18.55;62.60
70434;BME280;57876;47.792;12.960;2023-07-29T06:27:34;96460.41;;;18.56;62.46
70434;BME280;57876;47.792;12.960;2023-07-29T06:30:02;96453.00;;;18.57;62.68
70434;BME280;57876;47.792;12.960;2023-07-29T06:32:26;96462.00;;;18.57;62.38
70434;BME280;57876;47.792;12.960;2023-07-29T06:34:51;96449.91;;;18.58;62.38
70434;BME280;57876;47.792;12.960;2023-07-29T06:37:16;96460.53;;;18.60;62.55
70434;BME280;57876;47.792;12.960;2023-07-29T06:39:40;96451.84;;;18.58;62.34
70434;BME280;57876;47.792;12.960;2023-07-29T06:42:05;96456.16;;;18.59;62.13
70434;BME280;57876;47.792;12.960;2023-07-29T06:44:29;96456.63;;;18.61;62.33
70434;BME280;57876;47.792;12.960;2023-07-29T06:46:54;96458.56;;;18.60;62.57
70434;BME280;57876;47.792;12.960;2023-07-29T06:49:18;96454.25;;;18.59;62.40
70434;BME280;57876;47.792;12.960;2023-07-29T06:51:43;96444.09;;;18.60;62.67
70434;BME280;57876;47.792;12.960;2023-07-29T06:54:07;96448.78;;;18.59;62.54
70434;BME280;57876;47.792;12.960;2023-07-29T06:56:31;96454.91;;;18.56;62.36
70434;BME280;57876;47.792;12.960;2023-07-29T06:58:56;96448.31;;;18.57;62.42
70434;BME280;57876;47.792;12.960;2023-07-29T07:01:20;96448.31;;;18.57;62.54
70434;BME280;57876;47.792;12.960;2023-07-29T07:03:45;96449.91;;;18.58;62.50
70434;BME280;57876;47.792;12.960;2023-07-29T07:06:09;96443.31;;;18.59;62.33
70434;BME280;57876;47.792;12.960;2023-07-29T07:08:34;96446.38;;;18.58;62.50
70434;BME280;57876;47.792;12.960;2023-07-29T07:10:58;96459.72;;;18.59;62.48
70434;BME280;57876;47.792;12.960;2023-07-29T07:13:23;96454.59;;;18.58;62.38
70434;BME280;57876;47.792;12.960;2023-07-29T07:15:47;96454.25;;;18.59;62.32
70434;BME280;57876;47.792;12.960;2023-07-29T07:18:12;96447.16;;;18.58;62.04
70434;BME280;57876;47.792;12.960;2023-07-29T07:20:36;96454.25;;;18.59;62.48
70434;BME280;57876;47.792;12.960;2023-07-29T07:23:02;96442.94;;;18.61;62.35
70434;BME280;57876;47.792;12.960;2023-07-29T07:25:27;96434.72;;;18.61;62.36
70434;BME280;57876;47.792;12.960;2023-07-29T07:27:51;96439.41;;;18.60;62.28
70434;BME280;57876;47.792;12.960;2023-07-29T07:30:16;96446.47;;;18.61;62.53
70434;BME280;57876;47.792;12.960;2023-07-29T07:32:40;96441.81;;;18.62;62.64
70434;BME280;57876;47.792;12.960;2023-07-29T07:35:05;96439.75;;;18.59;62.31
70434;BME280;57876;47.792;12.960;2023-07-29T07:37:29;96449.66;;;18.63;62.34
70434;BME280;57876;47.792;12.960;2023-07-29T07:39:54;96446.94;;;18.63;62.26
70434;BME280;57876;47.792;12.960;2023-07-29T07:42:18;96444.88;;;18.60;62.49
70434;BME280;57876;47.792;12.960;2023-07-29T07:44:43;96457.88;;;18.63;62.38
70434;BME280;57876;47.792;12.960;2023-07-29T07:47:07;96453.56;;;18.62;62.29
70434;BME280;57876;47.792;12.960;2023-07-29T07:49:31;96460.63;;;18.63;62.37
70434;BME280;57876;47.792;12.960;2023-07-29T07:51:56;96469.19;;;18.62;62.31
70434;BME280;57876;47.792;12.960;2023-07-29T07:54:20;96475.47;;;18.62;62.28
70434;BME280;57876;47.792;12.960;2023-07-29T07:56:45;96472.38;;;18.64;62.28
70434;BME280;57876;47.792;12.960;2023-07-29T07:59:09;96474.31;;;18.63;62.35
70434;BME280;57876;47.792;12.960;2023-07-29T08:01:38;96491.13;;;18.62;62.43
70434;BME280;57876;47.792;12.960;2023-07-29T08:04:03;96482.53;;;18.63;62.41
70434;BME280;57876;47.792;12.960;2023-07-29T08:06:28;96484.81;;;18.61;62.54
70434;BME280;57876;47.792;12.960;2023-07-29T08:08:55;96479.34;;;18.61;62.33
70434;BME280;57876;47.792;12.960;2023-07-29T08:11:20;96478.53;;;18.61;62.26
70434;BME280;57876;47.792;12.960;2023-07-29T08:13:44;96480.59;;;18.64;62.18
70434;BME280;57876;47.792;12.960;2023-07-29T08:16:09;96483.00;;;18.65;62.59
70434;BME280;57876;47.792;12.960;2023-07-29T08:18:33;96488.00;;;18.63;62.41
70434;BME280;57876;47.792;12.960;2023-07-29T08:20:59;96494.75;;;18.66;62.47
70434;BME280;57876;47.792;12.960;2023-07-29T08:23:26;96502.16;;;18.65;62.33
70434;BME280;57876;47.792;12.960;2023-07-29T08:25:58;96508.81;;;18.64;62.41
70434;BME280;57876;47.792;12.960;2023-07-29T08:28:36;96516.66;;;18.66;62.40
70434;BME280;57876;47.792;12.960;2023-07-29T08:31:01;96500.59;;;18.64;62.62
70434;BME280;57876;47.792;12.960;2023-07-29T08:33:26;96510.38;;;18.65;62.34
70434;BME280;57876;47.792;12.960;2023-07-29T08:35:54;96499.44;;;18.65;62.60
70434;BME280;57876;47.792;12.960;2023-07-29T08:38:18;96500.13;;;18.62;62.47
70434;BME280;57876;47.792;12.960;2023-07-29T08:41:13;96493.16;;;18.65;62.40
70434;BME280;57876;47.792;12.960;2023-07-29T08:43:43;96492.38;;;18.64;62.55
70434;BME280;57876;47.792;12.960;2023-07-29T08:46:08;96493.97;;;18.65;62.47
70434;BME280;57876;47.792;12.960;2023-07-29T08:48:40;96495.09;;;18.64;62.76
70434;BME280;57876;47.792;12.960;2023-07-29T08:51:09;96493.16;;;18.65;62.79
70434;BME280;57876;47.792;12.960;2023-07-29T08:53:35;96491.91;;;18.62;62.47
70434;BME280;57876;47.792;12.960;2023-07-29T08:55:59;96490.41;;;18.65;62.71
70434;BME280;57876;47.792;12.960;2023-07-29T08:58:24;96485.75;;;18.65;62.80
70434;BME280;57876;47.792;12.960;2023-07-29T09:00:49;96493.16;;;18.65;62.50
70434;BME280;57876;47.792;12.960;2023-07-29T09:03:14;96492.81;;;18.66;62.74
70434;BME280;57876;47.792;12.960;2023-07-29T09:05:39;96484.94;;;18.65;62.47
70434;BME280;57876;47.792;12.960;2023-07-29T09:08:04;96488.47;;;18.65;62.71
70434;BME280;57876;47.792;12.960;2023-07-29T09:10:28;96485.75;;;18.65;62.44
70434;BME280;57876;47.792;12.960;2023-07-29T09:12:53;96491.22;;;18.65;62.65
70434;BME280;57876;47.792;12.960;2023-07-29T09:15:32;96502.97;;;18.66;62.61
70434;BME280;57876;47.792;12.960;2023-07-29T09:17:58;96502.97;;;18.66;62.78
70434;BME280;57876;47.792;12.960;2023-07-29T09:20:28;96502.16;;;18.65;62.88
70434;BME280;57876;47.792;12.960;2023-07-29T09:22:58;96508.81;;;18.64;62.75
70434;BME280;57876;47.792;12.960;2023-07-29T09:25:27;96508.44;;;18.66;62.69
70434;BME280;57876;47.792;12.960;2023-07-29T09:27:51;96505.25;;;18.64;62.60
70434;BME280;57876;47.792;12.960;2023-07-29T09:30:16;96511.19;;;18.66;62.76
70434;BME280;57876;47.792;12.960;2023-07-29T09:32:41;96502.16;;;18.65;62.76
70434;BME280;57876;47.792;12.960;2023-07-29T09:35:14;96507.19;;;18.63;62.46
70434;BME280;57876;47.792;12.960;2023-07-29T09:37:39;96508.44;;;18.66;62.67
70434;BME280;57876;47.792;12.960;2023-07-29T09:40:04;96495.09;;;18.64;62.70
70434;BME280;57876;47.792;12.960;2023-07-29T09:42:28;96509.25;;;18.66;62.75
70434;BME280;57876;47.792;12.960;2023-07-29T09:44:55;96511.19;;;18.66;62.77
70434;BME280;57876;47.792;12.960;2023-07-29T09:47:23;96506.97;;;18.68;62.72
70434;BME280;57876;47.792;12.960;2023-07-29T09:49:49;96498.28;;;18.66;62.81
70434;BME280;57876;47.792;12.960;2023-07-29T09:52:17;96497.50;;;18.66;62.57
70434;BME280;57876;47.792;12.960;2023-07-29T09:54:43;96506.97;;;18.68;62.79
70434;BME280;57876;47.792;12.960;2023-07-29T09:57:08;96508.44;;;18.66;62.69
70434;BME280;57876;47.792;12.960;2023-07-29T09:59:35;96503.44;;;18.68;62.65
70434;BME280;57876;47.792;12.960;2023-07-29T10:02:00;96494.41;;;18.67;62.71
70434;BME280;57876;47.792;12.960;2023-07-29T10:04:25;96498.41;;;18.70;62.46
70434;BME280;57876;47.792;12.960;2023-07-29T10:06:50;96503.06;;;18.69;62.75
70434;BME280;57876;47.792;12.960;2023-07-29T10:09:15;96505.00;;;18.69;62.64
70434;BME280;57876;47.792;12.960;2023-07-29T10:11:41;96506.16;;;18.68;62.56
70434;BME280;57876;47.792;12.960;2023-07-29T10:14:06;96496.78;;;18.69;62.73
70434;BME280;57876;47.792;12.960;2023-07-29T10:16:31;96498.28;;;18.66;62.83
70434;BME280;57876;47.792;12.960;2023-07-29T10:18:56;96491.31;;;18.69;62.81
70434;BME280;57876;47.792;12.960;2023-07-29T10:21:22;96490.06;;;18.66;62.87
70434;BME280;57876;47.792;12.960;2023-07-29T10:23:49;96492.81;;;18.66;62.56
70434;BME280;57876;47.792;12.960;2023-07-29T10:26:19;96484.59;;;18.66;62.76
70434;BME280;57876;47.792;12.960;2023-07-29T10:28:47;96482.66;;;18.67;62.89
70434;BME280;57876;47.792;12.960;2023-07-29T10:31:12;96475.66;;;18.69;62.97
70434;BME280;57876;47.792;12.960;2023-07-29T10:33:39;96466.66;;;18.69;62.74
70434;BME280;57876;47.792;12.960;2023-07-29T10:36:07;96456.84;;;18.68;62.85
70434;BME280;57876;47.792;12.960;2023-07-29T10:38:32;96450.59;;;18.67;62.79
70434;BME280;57876;47.792;12.960;2023-07-29T10:40:57;96452.06;;;18.65;62.75
70434;BME280;57876;47.792;12.960;2023-07-29T10:43:26;96463.91;;;18.69;62.45
70434;BME280;57876;47.792;12.960;2023-07-29T10:45:51;96457.31;;;18.70;63.03
70434;BME280;57876;47.792;12.960;2023-07-29T10:51:33;96458.09;;;18.70;62.81
70434;BME280;57876;47.792;12.960;2023-07-29T10:54:10;96456.94;;;18.71;62.92
70434;BME280;57876;47.792;12.960;2023-07-29T10:56:37;96446.78;;;18.72;62.85
70434;BME280;57876;47.792;12.960;2023-07-29T11:01:38;96437.31;;;18.69;62.90
70434;BME280;57876;47.792;12.960;2023-07-29T11:04:22;96435.03;;;18.71;62.99
70434;BME280;57876;47.792;12.960;2023-07-29T11:09:52;96431.16;;;18.73;62.79
70434;BME280;57876;47.792;12.960;2023-07-29T11:12:51;96431.16;;;18.73;62.79
70434;BME280;57876;47.792;12.960;2023-07-29T11:15:27;96421.34;;;18.71;62.60
70434;BME280;57876;47.792;12.960;2023-07-29T11:17:59;96422.13;;;18.72;62.77
70434;BME280;57876;47.792;12.960;2023-07-29T11:20:31;96409.13;;;18.69;62.75
70434;BME280;57876;47.792;12.960;2023-07-29T11:23:01;96411.88;;;18.69;62.74
70434;BME280;57876;47.792;12.960;2023-07-29T11:25:31;96413.56;;;18.74;62.77
70434;BME280;57876;47.792;12.960;2023-07-29T11:27:58;96415.53;;;18.73;62.59
70434;BME280;57876;47.792;12.960;2023-07-29T11:30:24;96419.06;;;18.74;62.82
70434;BME280;57876;47.792;12.960;2023-07-29T11:32:53;96417.94;;;18.75;62.64
70434;BME280;57876;47.792;12.960;2023-07-29T11:35:18;96413.56;;;18.74;62.77
70434;BME280;57876;47.792;12.960;2023-07-29T11:37:54;96409.25;;;18.73;62.78
70434;BME280;57876;47.792;12.960;2023-07-29T11:40:20;96423.41;;;18.75;62.83
70434;BME280;57876;47.792;12.960;2023-07-29T11:42:51;96410.03;;;18.73;62.86
70434;BME280;57876;47.792;12.960;2023-07-29T11:45:16;96411.63;;;18.74;62.96
70434;BME280;57876;47.792;12.960;2023-07-29T11:47:41;96417.09;;;18.74;63.01
70434;BME280;57876;47.792;12.960;2023-07-29T11:50:07;96416.31;;;18.74;62.84
70434;BME280;57876;47.792;12.960;2023-07-29T11:52:33;96416.00;;;18.75;62.68
70434;BME280;57876;47.792;12.960;2023-07-29T11:54:58;96413.56;;;18.74;62.75
70434;BME280;57876;47.792;12.960;2023-07-29T11:57:23;96408.59;;;18.76;62.95
70434;BME280;57876;47.792;12.960;2023-07-29T11:59:47;96401.81;;;18.73;63.04
70434;BME280;57876;47.792;12.960;2023-07-29T12:02:15;96409.72;;;18.75;62.89
70434;BME280;57876;47.792;12.960;2023-07-29T12:04:41;96406.16;;;18.74;62.93
70434;BME280;57876;47.792;12.960;2023-07-29T12:07:06;96408.88;;;18.74;62.77
70434;BME280;57876;47.792;12.960;2023-07-29T12:09:33;96402.94;;;18.72;62.99
70434;BME280;57876;47.792;12.960;2023-07-29T12:11:58;96396.00;;;18.75;62.98
70434;BME280;57876;47.792;12.960;2023-07-29T12:14:28;96405.06;;;18.75;62.85
70434;BME280;57876;47.792;12.960;2023-07-29T12:16:52;96396.69;;;18.71;62.71
70434;BME280;57876;47.792;12.960;2023-07-29T12:19:17;96395.19;;;18.74;62.85
70434;BME280;57876;47.792;12.960;2023-07-29T12:21:42;96387.66;;;18.71;63.14
70434;BME280;57876;47.792;12.960;2023-07-29T12:24:06;96392.00;;;18.72;62.98
70434;BME280;57876;47.792;12.960;2023-07-29T12:26:31;96391.34;;;18.75;63.09
70434;BME280;57876;47.792;12.960;2023-07-29T12:28:55;96393.59;;;18.73;63.12
70434;BME280;57876;47.792;12.960;2023-07-29T12:31:31;96390.53;;;18.75;62.98
70434;BME280;57876;47.792;12.960;2023-07-29T12:33:56;96387.78;;;18.75;62.90
70434;BME280;57876;47.792;12.960;2023-07-29T12:36:21;96377.97;;;18.74;63.05
70434;BME280;57876;47.792;12.960;2023-07-29T12:38:45;96377.16;;;18.73;62.95
70434;BME280;57876;47.792;12.960;2023-07-29T12:41:09;96378.75;;;18.74;62.81
70434;BME280;57876;47.792;12.960;2023-07-29T12:43:34;96385.88;;;18.75;63.02
70434;BME280;57876;47.792;12.960;2023-07-29T12:45:59;96371.34;;;18.75;62.92
70434;BME280;57876;47.792;12.960;2023-07-29T12:48:23;96378.44;;;18.76;62.83
70434;BME280;57876;47.792;12.960;2023-07-29T12:50:48;96370.22;;;18.76;62.83
70434;BME280;57876;47.792;12.960;2023-07-29T12:53:12;96372.97;;;18.76;62.89
70434;BME280;57876;47.792;12.960;2023-07-29T12:55:37;96363.13;;;18.75;63.07
70434;BME280;57876;47.792;12.960;2023-07-29T12:58:01;96367.78;;;18.74;62.76
70434;BME280;57876;47.792;12.960;2023-07-29T13:00:26;96361.66;;;18.77;62.92
70434;BME280;57876;47.792;12.960;2023-07-29T13:02:53;96365.22;;;18.78;63.06